SR-SS   ¦   EYVI 0634-1355UTC    ¦   EYKA 0639-1400UTC    ¦   EYSA 0648-1357UTC    ¦   EYPA 0700-1403UTC


***********************WWW.PILOTUMOKYKLA.LT**********************
****************************WX START*****************************

EYVI - Vilnius International (ATIS: 125.8)
(LIFR) EYVI 170020Z 14011KT 1300 R19/P2000N SN BR OVC007 M03/M04 Q1024 R19/4/0293 TEMPO 1500 SN BR
(IFR) EYVI 162350Z 15010KT 1800 SN BR OVC008 M03/M04 Q1024 R19/4/0293 TEMPO 1500 SN BR
(LIFR) EYVI 162320Z 15011KT 1200 R19/P2000N SN OVC007 M03/M04 Q1024 R19/4/0293 TEMPO 1500 SN BR
(LIFR) EYVI 162310Z 15011KT 1300 R19/P2000N SN OVC007 M03/M04 Q1024 R19/4/0293 TEMPO 1500 SN BR

Couldn't resolve host 'weather.noaa.gov'=============================================================

EYKA - Kaunas International (ATIS: 129.05)
(IFR) EYKA 170020Z AUTO 14010KT 3500 -SN BKN012/// M02/M04 Q1023
(MVFR) EYKA 162350Z AUTO 14010KT 6000 -SN OVC013/// M02/M04 Q1023
(MVFR) EYKA 162320Z AUTO 13009KT 110V170 5000 -SN OVC013/// M02/M04 Q1023

Couldn't resolve host 'weather.noaa.gov'=============================================================

EYSA - Siauliai International (Military) (ATIS: 120.75)
() EYSA 170020Z AUTO 15012KT 8000NDV -SHSN BKN009 OVC015 M03/M03 Q1022 R14L/59//91
() EYSA 162350Z AUTO 15013KT 9999NDV -SN BKN009 OVC016 M03/M03 Q1022 R14L/59//91
() EYSA 162320Z AUTO 14014KT 8000NDV -SN BKN009 OVC017 M03/M03 Q1022 R14L/59//91

Couldn't resolve host 'weather.noaa.gov'=============================================================

EYPA - Palanga International (ATIS: 127.8)
(MVFR) EYPA 170020Z AUTO 16009KT 9999 OVC011/// M01/M03 Q1020
(MVFR) EYPA 162350Z AUTO 16010KT 9999 OVC012/// M01/M03 Q1020
(MVFR) EYPA 162320Z AUTO 16010KT 9999 BKN012/// M01/M03 Q1020

Couldn't resolve host 'weather.noaa.gov'=============================================================

UMMG - Hrodna International (ATIS: 135.02)
Couldn't resolve host 'weather.noaa.gov'=============================================================

NOTE: WX Report includes all metar's issued in last 1:30h and latest TAF's.

******************************WX END*********************************
***********************************************************************